Time;durP1;ratioP1;P1;durP2;ratioP2;P2;SDS_P1;SDS_P2;PMS_P1;PMS_P2;Temp;Humidity;BMP_temperature;BMP_pressure;BME280_temperature;BME280_humidity;BME280_pressure;Samples;Min_cycle;Max_cycle;Signal;HPM_P1;HPM_P2
2022/12/03 00:00:42;;;;;;;22.90;15.30;;;3.30;1.00;;;;;;5031339;28;20555;-68
2022/12/03 00:03:08;;;;;;;21.27;14.27;;;3.20;1.00;;;;;;5032709;28;20625;-66
2022/12/03 00:05:34;;;;;;;20.77;14.20;;;3.30;1.00;;;;;;5032341;28;20207;-64
2022/12/03 00:07:59;;;;;;;25.23;14.20;;;3.30;1.00;;;;;;5032836;28;20445;-64
2022/12/03 00:10:25;;;;;;;26.10;14.60;;;3.40;1.00;;;;;;5030738;28;20175;-65
2022/12/03 00:12:51;;;;;;;27.33;13.90;;;3.50;1.00;;;;;;5032139;28;20253;-65
2022/12/03 00:15:16;;;;;;;23.30;14.10;;;3.60;1.00;;;;;;5028366;28;20261;-65
2022/12/03 00:17:42;;;;;;;27.00;16.30;;;3.30;1.00;;;;;;5025037;28;20168;-67
2022/12/03 00:20:10;;;;;;;21.10;14.37;;;3.40;1.00;;;;;;5012391;28;20199;-66
2022/12/03 00:22:36;;;;;;;29.27;15.27;;;3.50;1.00;;;;;;5015470;28;20547;-64
2022/12/03 00:25:01;;;;;;;25.00;14.60;;;3.50;1.00;;;;;;5021503;28;20442;-65
2022/12/03 00:27:27;;;;;;;27.50;14.40;;;3.50;1.00;;;;;;5028353;28;20172;-65
2022/12/03 00:29:53;;;;;;;27.40;16.07;;;3.50;1.00;;;;;;5012136;28;20176;-64
2022/12/03 00:32:18;;;;;;;29.73;16.63;;;3.50;1.00;;;;;;5014137;28;20194;-65
2022/12/03 00:34:44;;;;;;;27.80;15.63;;;3.60;1.00;;;;;;5031709;28;20725;-66
2022/12/03 00:37:10;;;;;;;27.87;16.33;;;3.60;1.00;;;;;;5032214;28;20633;-65
2022/12/03 00:39:35;;;;;;;24.37;15.07;;;3.70;1.00;;;;;;5029226;28;20601;-67
2022/12/03 00:42:01;;;;;;;24.17;15.50;;;3.80;1.00;;;;;;5015728;28;20262;-66
2022/12/03 00:44:27;;;;;;;28.70;15.80;;;3.70;1.00;;;;;;5027144;28;20257;-66
2022/12/03 00:46:52;;;;;;;23.47;15.10;;;3.70;1.00;;;;;;5015317;28;20201;-66
2022/12/03 00:49:18;;;;;;;25.23;15.10;;;3.60;1.00;;;;;;5021596;28;20241;-66
2022/12/03 00:51:44;;;;;;;24.57;16.30;;;3.50;1.00;;;;;;5031136;28;20214;-66
2022/12/03 00:54:09;;;;;;;24.50;14.40;;;3.60;1.00;;;;;;5029935;28;20211;-66
2022/12/03 00:56:35;;;;;;;26.77;16.73;;;3.70;1.00;;;;;;5027563;28;20184;-66
2022/12/03 00:59:01;;;;;;;22.90;14.67;;;3.80;1.00;;;;;;5025432;28;20183;-65
2022/12/03 01:01:26;;;;;;;27.73;15.73;;;3.80;1.00;;;;;;5019953;28;20169;-66
2022/12/03 01:03:52;;;;;;;25.67;15.40;;;3.80;1.00;;;;;;5012050;28;20204;-66
2022/12/03 01:06:18;;;;;;;27.53;16.93;;;3.70;1.00;;;;;;5025012;28;20175;-66
2022/12/03 01:08:43;;;;;;;29.27;16.37;;;3.80;1.00;;;;;;5031027;28;20648;-66
2022/12/03 01:11:36;;;;;;;27.63;17.50;;;3.70;1.00;;;;;;5030935;28;20168;-65
2022/12/03 01:13:54;;;;;;;26.47;15.47;;;3.60;1.00;;;;;;5031294;28;20211;-64
2022/12/03 01:16:20;;;;;;;25.70;15.33;;;3.70;1.00;;;;;;5031858;28;20409;-65
2022/12/03 01:18:46;;;;;;;27.70;15.03;;;3.80;1.00;;;;;;5031559;28;20271;-63
2022/12/03 01:21:11;;;;;;;30.30;16.47;;;3.70;1.00;;;;;;5031373;28;20180;-65
2022/12/03 01:23:37;;;;;;;26.73;16.53;;;3.70;1.00;;;;;;5031274;28;20195;-66
2022/12/03 01:26:03;;;;;;;28.70;17.57;;;3.60;1.00;;;;;;5032370;28;20176;-65
2022/12/03 01:28:30;;;;;;;25.57;16.30;;;3.70;1.00;;;;;;5032139;28;20226;-64
2022/12/03 01:33:40;;;;;;;26.23;15.77;;;3.70;1.00;;;;;;5019233;28;20574;-64
2022/12/03 01:36:06;;;;;;;26.07;15.83;;;3.80;1.00;;;;;;5013940;28;20461;-64
2022/12/03 01:38:31;;;;;;;25.63;15.53;;;3.80;1.00;;;;;;5011280;28;20168;-66
2022/12/03 01:40:57;;;;;;;27.17;16.80;;;3.60;1.00;;;;;;5010046;28;20169;-66
2022/12/03 01:43:23;;;;;;;30.87;17.63;;;3.70;1.00;;;;;;5010422;28;20266;-63
2022/12/03 01:45:49;;;;;;;34.07;17.40;;;3.50;1.00;;;;;;5010656;28;20172;-66
2022/12/03 01:48:15;;;;;;;27.33;16.23;;;3.70;1.00;;;;;;5010801;28;20625;-66
2022/12/03 01:50:42;;;;;;;33.90;16.83;;;3.80;1.00;;;;;;5010074;28;20518;-64
2022/12/03 01:53:10;;;;;;;29.40;16.93;;;3.60;1.00;;;;;;5010786;28;20458;-64
2022/12/03 01:55:36;;;;;;;28.10;15.70;;;3.60;1.00;;;;;;5029238;28;20414;-68
2022/12/03 01:58:03;;;;;;;30.80;17.37;;;3.60;1.00;;;;;;5030385;28;20417;-66
2022/12/03 02:00:29;;;;;;;26.43;15.13;;;3.70;1.00;;;;;;5025401;28;20463;-67
2022/12/03 02:03:16;;;;;;;29.70;16.63;;;3.70;1.00;;;;;;5013031;28;20470;-67
2022/12/03 02:05:42;;;;;;;30.30;17.03;;;3.70;1.00;;;;;;5027334;28;20203;-67
2022/12/03 02:08:29;;;;;;;42.73;21.87;;;3.80;1.00;;;;;;5023690;28;20611;-66
2022/12/03 02:11:05;;;;;;;27.80;16.57;;;3.70;1.00;;;;;;5012518;28;20188;-68
2022/12/03 02:13:31;;;;;;;27.93;14.77;;;3.60;1.00;;;;;;5029753;28;20827;-64
2022/12/03 02:15:57;;;;;;;31.40;15.17;;;3.50;1.00;;;;;;5017030;28;20518;-68
2022/12/03 02:18:22;;;;;;;24.30;14.30;;;3.40;1.00;;;;;;5010325;28;20768;-68
2022/12/03 02:21:02;;;;;;;25.50;13.20;;;3.60;1.00;;;;;;5009315;28;20622;-67
2022/12/03 02:23:45;;;;;;;23.23;13.50;;;3.60;1.00;;;;;;5010182;28;20666;-67
2022/12/03 02:26:11;;;;;;;20.67;13.20;;;3.40;1.00;;;;;;5010524;28;20896;-68
2022/12/03 02:28:37;;;;;;;24.53;15.60;;;3.50;1.00;;;;;;5027415;28;20433;-67
2022/12/03 02:31:04;;;;;;;29.80;16.47;;;3.70;1.00;;;;;;5029066;28;20172;-65
2022/12/03 02:33:30;;;;;;;34.33;18.63;;;3.90;1.00;;;;;;5017338;28;20870;-63
2022/12/03 02:35:56;;;;;;;28.73;17.27;;;3.90;1.00;;;;;;5010173;28;20400;-66
2022/12/03 02:38:24;;;;;;;26.80;15.43;;;3.90;1.00;;;;;;5010569;28;20403;-66
2022/12/03 02:40:54;;;;;;;30.03;16.40;;;3.80;1.00;;;;;;5040327;23;20278;-63
2022/12/03 02:43:21;;;;;;;29.37;15.63;;;3.90;1.00;;;;;;5029173;28;20475;-63
2022/12/03 02:45:55;;;;;;;28.60;15.40;;;3.90;1.00;;;;;;5028982;28;20917;-63
2022/12/03 02:48:28;;;;;;;19.77;12.87;;;4.00;1.00;;;;;;5029172;28;20414;-63
2022/12/03 02:50:58;;;;;;;23.53;14.53;;;3.90;1.00;;;;;;5028160;28;20422;-62
2022/12/03 02:53:27;;;;;;;24.93;14.80;;;4.00;1.00;;;;;;5029081;28;20540;-64
2022/12/03 02:55:54;;;;;;;22.63;14.83;;;4.20;1.00;;;;;;5028763;28;20510;-64
2022/12/03 02:58:22;;;;;;;23.53;14.77;;;4.20;1.00;;;;;;5032393;28;20406;-63
2022/12/03 03:00:49;;;;;;;22.10;14.33;;;4.20;1.00;;;;;;5032305;28;20445;-64
2022/12/03 03:03:16;;;;;;;30.10;16.57;;;4.10;1.00;;;;;;5033095;28;20394;-62
2022/12/03 03:05:42;;;;;;;27.40;16.30;;;4.10;1.00;;;;;;5033051;28;20436;-63
2022/12/03 03:08:10;;;;;;;28.33;15.33;;;4.10;1.00;;;;;;5032797;28;20406;-63
2022/12/03 03:10:38;;;;;;;30.63;17.60;;;4.20;1.00;;;;;;5031502;28;20430;-64
2022/12/03 03:13:11;;;;;;;26.20;16.80;;;4.00;1.00;;;;;;5032614;28;20561;-64
2022/12/03 03:15:39;;;;;;;24.60;16.80;;;4.10;1.00;;;;;;5032787;28;20402;-64
2022/12/03 03:18:09;;;;;;;28.10;15.97;;;4.10;1.00;;;;;;5032478;28;20811;-64
2022/12/03 03:20:36;;;;;;;26.60;16.30;;;3.90;1.00;;;;;;5031365;28;20458;-64
2022/12/03 03:23:10;;;;;;;24.63;15.53;;;3.80;1.00;;;;;;5032947;28;20817;-64
2022/12/03 03:25:38;;;;;;;22.57;14.77;;;3.80;1.00;;;;;;5032002;28;20406;-64
2022/12/03 03:28:04;;;;;;;24.80;14.57;;;3.70;1.00;;;;;;5032738;28;20407;-64
2022/12/03 03:30:31;;;;;;;25.40;16.33;;;3.80;1.00;;;;;;5031120;28;21061;-64
2022/12/03 03:32:57;;;;;;;23.87;15.10;;;3.80;1.00;;;;;;5024613;28;21107;-64
2022/12/03 03:35:23;;;;;;;23.70;15.30;;;3.80;1.00;;;;;;5012409;28;20392;-64
2022/12/03 03:37:50;;;;;;;25.20;16.07;;;3.80;1.00;;;;;;5012811;28;20747;-64
2022/12/03 03:40:16;;;;;;;20.90;13.07;;;3.90;1.00;;;;;;5011672;28;20446;-64
2022/12/03 03:42:41;;;;;;;21.40;13.13;;;3.90;1.00;;;;;;5011831;28;20399;-64
2022/12/03 03:45:08;;;;;;;20.87;12.30;;;4.00;1.00;;;;;;5012497;28;20174;-64
2022/12/03 03:47:34;;;;;;;19.03;13.83;;;3.90;1.00;;;;;;5012817;28;20183;-64
2022/12/03 03:50:00;;;;;;;21.17;12.17;;;3.80;1.00;;;;;;5012545;28;20431;-64
2022/12/03 03:52:26;;;;;;;20.40;12.00;;;3.90;1.00;;;;;;5011253;28;20529;-64
2022/12/03 03:54:52;;;;;;;21.37;12.37;;;3.90;1.00;;;;;;5012040;28;20458;-64
2022/12/03 03:57:17;;;;;;;17.70;12.23;;;3.70;1.00;;;;;;5012338;28;20160;-64
2022/12/03 03:59:43;;;;;;;16.90;11.00;;;3.80;1.00;;;;;;5012178;28;20277;-63
2022/12/03 04:02:27;;;;;;;21.50;12.50;;;3.80;1.00;;;;;;5011493;28;20176;-64
2022/12/03 04:04:53;;;;;;;19.77;12.20;;;3.90;1.00;;;;;;5027383;28;20180;-63
2022/12/03 04:07:19;;;;;;;21.07;14.10;;;3.90;1.00;;;;;;5031482;28;20488;-63
2022/12/03 04:09:45;;;;;;;20.83;12.80;;;3.90;1.00;;;;;;5031333;28;20532;-63
2022/12/03 04:14:56;;;;;;;23.27;14.10;;;3.60;1.00;;;;;;5032251;28;20410;-63
2022/12/03 04:17:22;;;;;;;20.93;12.87;;;3.40;1.00;;;;;;5031679;28;20806;-63
2022/12/03 04:19:48;;;;;;;17.10;11.43;;;3.60;1.00;;;;;;5031886;28;20529;-63
2022/12/03 04:30:27;;;;;;;23.30;13.40;;;3.20;1.00;;;;;;5030933;28;20444;-63
2022/12/03 04:35:42;;;;;;;23.50;13.37;;;3.10;1.00;;;;;;5011646;28;20268;-63
2022/12/03 04:38:15;;;;;;;22.93;14.17;;;3.00;1.00;;;;;;5011804;28;20415;-63
2022/12/03 04:43:25;;;;;;;24.17;13.27;;;3.20;1.00;;;;;;5011452;28;20842;-63
2022/12/03 04:45:51;;;;;;;20.20;12.30;;;3.30;1.00;;;;;;5011584;28;20429;-63
2022/12/03 04:48:17;;;;;;;21.20;12.30;;;3.20;1.00;;;;;;5011256;28;21000;-63
2022/12/03 04:50:43;;;;;;;23.97;12.40;;;3.10;1.00;;;;;;5010509;28;20192;-63
2022/12/03 04:53:08;;;;;;;27.13;12.93;;;3.00;1.00;;;;;;5011293;28;20204;-63
2022/12/03 04:55:34;;;;;;;21.03;12.47;;;2.90;1.00;;;;;;5010819;28;20544;-63
2022/12/03 04:58:00;;;;;;;27.53;13.33;;;3.00;1.00;;;;;;5011334;28;20203;-63
2022/12/03 05:00:25;;;;;;;19.53;11.40;;;3.00;1.00;;;;;;5010800;28;20572;-63
2022/12/03 05:02:51;;;;;;;18.97;11.50;;;2.90;1.00;;;;;;5012050;28;20212;-63
2022/12/03 05:05:17;;;;;;;24.00;12.47;;;2.90;1.00;;;;;;5029915;28;20179;-63
2022/12/03 05:07:43;;;;;;;18.60;11.13;;;2.80;1.00;;;;;;5031010;28;20179;-63
2022/12/03 05:10:09;;;;;;;18.43;11.23;;;2.90;1.00;;;;;;5030201;28;20430;-65
2022/12/03 05:12:35;;;;;;;20.90;11.67;;;2.90;1.00;;;;;;5030128;28;20681;-62
2022/12/03 05:15:01;;;;;;;19.93;11.87;;;2.80;1.00;;;;;;5028876;28;20430;-65
2022/12/03 05:17:26;;;;;;;22.73;11.37;;;2.80;1.00;;;;;;5026577;28;20168;-63
2022/12/03 05:22:37;;;;;;;16.60;8.40;;;2.90;1.00;;;;;;5018661;28;20711;-63
2022/12/03 05:25:03;;;;;;;16.77;9.73;;;2.90;1.00;;;;;;5010322;28;20439;-65
2022/12/03 05:27:28;;;;;;;18.17;10.87;;;2.90;1.00;;;;;;5010734;28;20176;-64
2022/12/03 05:29:54;;;;;;;15.63;9.20;;;2.80;1.00;;;;;;5010719;28;20530;-65
2022/12/03 05:32:20;;;;;;;22.60;12.93;;;2.90;1.00;;;;;;5020702;28;20258;-64
2022/12/03 05:34:45;;;;;;;24.10;12.20;;;2.90;1.00;;;;;;5030119;28;20588;-65
2022/12/03 05:37:11;;;;;;;21.63;10.77;;;2.90;1.00;;;;;;5030668;28;20188;-65
2022/12/03 05:39:37;;;;;;;20.77;12.00;;;2.80;1.00;;;;;;5029907;28;20164;-65
2022/12/03 05:44:47;;;;;;;19.30;11.53;;;2.80;1.00;;;;;;5029998;28;20202;-65
2022/12/03 05:47:13;;;;;;;23.17;12.10;;;2.90;1.00;;;;;;5031298;28;20425;-65
2022/12/03 05:49:38;;;;;;;28.17;14.20;;;3.10;1.00;;;;;;5030540;28;20686;-65
2022/12/03 05:52:04;;;;;;;24.67;12.93;;;2.90;1.00;;;;;;5029884;28;20190;-65
2022/12/03 05:54:30;;;;;;;22.87;13.23;;;3.00;1.00;;;;;;5029931;28;20562;-63
2022/12/03 05:56:56;;;;;;;22.43;11.70;;;3.10;1.00;;;;;;5031020;28;20414;-63
2022/12/03 05:59:22;;;;;;;32.20;15.17;;;3.00;1.00;;;;;;5030453;28;20163;-66
2022/12/03 06:01:47;;;;;;;23.70;12.30;;;2.90;1.00;;;;;;5029735;28;20618;-63
2022/12/03 06:04:13;;;;;;;28.23;14.57;;;2.80;1.00;;;;;;5030191;28;20246;-63
2022/12/03 06:06:39;;;;;;;26.90;15.77;;;3.00;1.00;;;;;;5030070;28;20194;-63
2022/12/03 06:09:04;;;;;;;27.50;14.40;;;2.90;1.00;;;;;;5029294;28;20582;-64
2022/12/03 06:11:35;;;;;;;26.00;14.67;;;2.80;1.00;;;;;;5028894;28;20241;-63
2022/12/03 06:14:01;;;;;;;25.97;14.80;;;3.00;1.00;;;;;;5029434;28;20565;-63
2022/12/03 06:16:27;;;;;;;30.20;15.93;;;2.90;1.00;;;;;;5029950;28;20414;-64
2022/12/03 06:18:53;;;;;;;28.73;14.97;;;2.90;1.00;;;;;;5026291;28;20922;-64
2022/12/03 06:21:18;;;;;;;29.50;15.07;;;3.00;1.00;;;;;;5024347;28;20192;-64
2022/12/03 06:23:44;;;;;;;27.43;14.83;;;2.70;1.00;;;;;;5023579;28;20178;-63
2022/12/03 06:26:11;;;;;;;27.90;15.23;;;2.90;1.00;;;;;;5025205;28;20227;-64
2022/12/03 06:28:37;;;;;;;29.20;15.87;;;3.20;1.00;;;;;;5028204;28;20518;-64
2022/12/03 06:31:02;;;;;;;35.80;17.20;;;3.00;1.00;;;;;;5027094;28;20438;-64
2022/12/03 06:33:28;;;;;;;31.00;15.87;;;2.80;1.00;;;;;;5027971;28;20199;-64
2022/12/03 06:35:54;;;;;;;24.47;13.73;;;2.90;1.00;;;;;;5027397;28;20174;-64
2022/12/03 06:38:19;;;;;;;26.30;13.43;;;2.80;1.00;;;;;;5028981;28;20179;-64
2022/12/03 06:40:45;;;;;;;26.93;14.33;;;2.80;1.00;;;;;;5027767;28;20282;-64
2022/12/03 06:43:11;;;;;;;33.97;14.60;;;2.90;1.00;;;;;;5026673;28;20644;-63
2022/12/03 06:45:36;;;;;;;26.40;14.83;;;2.70;1.00;;;;;;5026143;28;20179;-64
2022/12/03 06:48:02;;;;;;;24.13;13.40;;;2.90;1.00;;;;;;5029440;28;20247;-64
2022/12/03 06:50:28;;;;;;;31.77;15.80;;;2.70;1.00;;;;;;5028411;28;20294;-64
2022/12/03 06:52:53;;;;;;;28.13;15.10;;;2.80;1.00;;;;;;5029356;28;20690;-64
2022/12/03 06:55:19;;;;;;;27.60;14.23;;;2.60;1.00;;;;;;5028897;28;20191;-63
2022/12/03 06:57:45;;;;;;;26.20;12.67;;;2.40;1.00;;;;;;5029482;28;20308;-63
2022/12/03 07:00:11;;;;;;;23.27;12.43;;;2.40;1.00;;;;;;5028609;28;20195;-64
2022/12/03 07:02:37;;;;;;;24.53;14.07;;;2.30;1.00;;;;;;5028551;28;20642;-64
2022/12/03 07:05:03;;;;;;;27.83;14.33;;;2.20;1.00;;;;;;5021372;28;20517;-64
2022/12/03 07:07:28;;;;;;;24.40;13.30;;;2.20;1.00;;;;;;5023378;28;20202;-64
2022/12/03 07:09:54;;;;;;;33.87;15.13;;;2.20;1.00;;;;;;5028458;28;20442;-64
2022/12/03 07:12:20;;;;;;;24.47;12.47;;;2.40;1.00;;;;;;5027645;28;20209;-64
2022/12/03 07:14:46;;;;;;;25.63;14.70;;;2.20;1.00;;;;;;5028806;28;20183;-64
2022/12/03 07:17:12;;;;;;;31.60;14.57;;;2.30;1.00;;;;;;5029055;28;20875;-64
2022/12/03 07:19:38;;;;;;;41.80;15.90;;;2.60;1.00;;;;;;5028938;28;20179;-64
2022/12/03 07:22:03;;;;;;;26.00;13.50;;;2.60;1.00;;;;;;5028407;28;20175;-64
2022/12/03 07:24:29;;;;;;;28.40;14.83;;;2.30;1.00;;;;;;5027776;28;20179;-63
2022/12/03 07:26:55;;;;;;;28.37;15.03;;;2.30;1.00;;;;;;5027087;28;20648;-63
2022/12/03 07:29:20;;;;;;;27.13;15.20;;;2.60;1.00;;;;;;5008889;28;20173;-63
2022/12/03 07:31:46;;;;;;;29.20;15.17;;;2.70;1.00;;;;;;5016585;28;20193;-65
2022/12/03 07:34:12;;;;;;;25.50;12.53;;;2.70;1.00;;;;;;5028127;28;20580;-64
2022/12/03 07:36:38;;;;;;;23.97;12.43;;;2.70;1.00;;;;;;5025287;28;20167;-64
2022/12/03 07:39:03;;;;;;;26.30;13.93;;;2.60;1.00;;;;;;5020720;28;20577;-64
2022/12/03 07:41:30;;;;;;;24.70;13.23;;;2.40;1.00;;;;;;5024831;28;20207;-64
2022/12/03 07:43:56;;;;;;;27.60;14.30;;;;;;;;;;5027440;28;20183;-64
2022/12/03 07:46:22;;;;;;;29.80;14.27;;;1.80;1.00;;;;;;5030366;28;20430;-64
2022/12/03 07:48:47;;;;;;;28.80;12.60;;;1.90;1.00;;;;;;5023431;28;20522;-63
2022/12/03 07:51:13;;;;;;;22.37;12.33;;;2.00;1.00;;;;;;5030269;28;20242;-64
2022/12/03 07:53:39;;;;;;;26.83;12.23;;;2.00;1.00;;;;;;5027755;28;20199;-63
2022/12/03 07:56:05;;;;;;;24.70;12.20;;;2.30;1.00;;;;;;5030799;28;20601;-64
2022/12/03 07:58:30;;;;;;;25.90;13.17;;;2.30;1.00;;;;;;5022891;28;20183;-64
2022/12/03 08:00:57;;;;;;;21.20;11.13;;;2.40;1.00;;;;;;5029492;28;21177;-64
2022/12/03 08:03:22;;;;;;;26.80;14.27;;;2.50;1.00;;;;;;5029511;28;20175;-64
2022/12/03 08:05:48;;;;;;;23.20;12.00;;;2.50;1.00;;;;;;5021563;28;20834;-64
2022/12/03 08:08:14;;;;;;;19.47;10.87;;;2.40;1.00;;;;;;5031299;28;20180;-64
2022/12/03 08:10:40;;;;;;;26.50;12.00;;;2.40;1.00;;;;;;5028814;28;20247;-64
2022/12/03 08:13:11;;;;;;;23.30;12.80;;;2.40;1.00;;;;;;5029001;28;20211;-64
2022/12/03 08:15:37;;;;;;;28.30;12.57;;;2.40;1.00;;;;;;5024582;28;20164;-64
2022/12/03 08:18:16;;;;;;;22.67;12.53;;;2.50;1.00;;;;;;5022516;28;20441;-64
2022/12/03 08:20:44;;;;;;;23.27;11.80;;;2.70;1.00;;;;;;5029288;28;20225;-64
2022/12/03 08:23:16;;;;;;;23.13;13.07;;;2.80;1.00;;;;;;5027606;28;20438;-64
2022/12/03 08:25:43;;;;;;;26.43;12.33;;;2.80;1.00;;;;;;5030015;28;20450;-63
2022/12/03 08:28:12;;;;;;;22.47;12.10;;;2.60;1.00;;;;;;5023467;28;20430;-63
2022/12/03 08:30:39;;;;;;;37.00;15.50;;;2.30;1.00;;;;;;5019475;28;20974;-64
2022/12/03 08:33:26;;;;;;;37.47;13.50;;;2.50;1.00;;;;;;5029849;28;20460;-63
2022/12/03 08:35:51;;;;;;;27.93;12.13;;;2.40;1.00;;;;;;5030891;28;20438;-64
2022/12/03 08:38:23;;;;;;;22.93;13.40;;;2.50;1.00;;;;;;5031180;28;20407;-64
2022/12/03 08:40:51;;;;;;;27.50;12.80;;;2.40;1.00;;;;;;5028260;28;20289;-64
2022/12/03 08:43:26;;;;;;;27.07;11.67;;;2.40;1.00;;;;;;5031027;28;20427;-64
2022/12/03 08:45:53;;;;;;;25.27;12.17;;;2.30;1.00;;;;;;5030736;28;21011;-63
2022/12/03 08:48:31;;;;;;;21.73;11.90;;;2.00;1.00;;;;;;5031193;28;20420;-64
2022/12/03 08:51:22;;;;;;;23.73;11.53;;;2.20;1.00;;;;;;5029022;28;20454;-63
2022/12/03 08:53:50;;;;;;;25.80;12.10;;;2.40;1.00;;;;;;5024826;28;20458;-64
2022/12/03 08:56:23;;;;;;;21.67;11.00;;;2.60;1.00;;;;;;5030176;28;20402;-64
2022/12/03 08:58:56;;;;;;;23.83;12.73;;;2.80;1.00;;;;;;5030513;28;21037;-64
2022/12/03 09:01:22;;;;;;;28.10;12.83;;;2.70;1.00;;;;;;5029875;28;20428;-64
2022/12/03 09:03:51;;;;;;;23.13;12.00;;;2.70;1.00;;;;;;5030450;28;20403;-64
2022/12/03 09:06:16;;;;;;;25.97;11.77;;;2.70;1.00;;;;;;5031084;28;20514;-64
2022/12/03 09:08:42;;;;;;;22.27;10.87;;;2.60;1.00;;;;;;5030120;28;20433;-64
2022/12/03 09:11:08;;;;;;;18.60;11.30;;;2.50;1.00;;;;;;5027264;28;20195;-64
2022/12/03 09:13:33;;;;;;;23.67;12.47;;;2.50;1.00;;;;;;5015694;28;20290;-64
2022/12/03 09:15:59;;;;;;;24.90;11.43;;;2.60;1.00;;;;;;5023642;28;20621;-64
2022/12/03 09:18:25;;;;;;;25.80;12.00;;;2.40;1.00;;;;;;5017142;28;20600;-63
2022/12/03 09:20:50;;;;;;;24.77;11.97;;;2.40;1.00;;;;;;5027955;28;20188;-63
2022/12/03 09:23:16;;;;;;;28.43;11.10;;;2.50;1.00;;;;;;5029770;28;20655;-63
2022/12/03 09:25:42;;;;;;;27.07;13.87;;;2.40;1.00;;;;;;5029468;28;20298;-64
2022/12/03 09:28:07;;;;;;;18.40;10.10;;;2.30;1.00;;;;;;5029765;28;20274;-64
2022/12/03 09:30:33;;;;;;;26.50;10.87;;;2.30;1.00;;;;;;5029231;28;20191;-64
2022/12/03 09:32:59;;;;;;;20.80;11.47;;;2.20;1.00;;;;;;5028045;28;20569;-64
2022/12/03 09:35:26;;;;;;;25.37;10.80;;;2.20;1.00;;;;;;5029808;28;20180;-64
2022/12/03 09:37:52;;;;;;;16.60;9.57;;;2.10;1.00;;;;;;5029461;28;20180;-64
2022/12/03 09:40:18;;;;;;;19.10;10.20;;;2.20;1.00;;;;;;5028310;28;20448;-63
2022/12/03 09:42:44;;;;;;;19.77;9.80;;;2.10;1.00;;;;;;5028974;28;20421;-64
2022/12/03 09:45:13;;;;;;;21.27;10.43;;;2.10;1.00;;;;;;5028824;28;20446;-64
2022/12/03 09:47:44;;;;;;;20.67;9.93;;;2.30;1.00;;;;;;5029140;28;20413;-64
2022/12/03 09:50:27;;;;;;;24.30;10.67;;;2.40;1.00;;;;;;5029172;28;20434;-63
2022/12/03 09:52:55;;;;;;;21.80;10.33;;;2.40;1.00;;;;;;5029370;28;20771;-66
2022/12/03 09:55:23;;;;;;;19.20;12.07;;;2.30;1.00;;;;;;5028741;28;20741;-64
2022/12/03 09:57:51;;;;;;;18.67;10.37;;;2.20;1.00;;;;;;5029226;28;20406;-64
2022/12/03 10:00:20;;;;;;;16.20;9.70;;;2.30;1.00;;;;;;5028996;28;20432;-63
2022/12/03 10:02:47;;;;;;;18.03;9.93;;;2.10;1.00;;;;;;5027988;28;20470;-64
2022/12/03 10:05:14;;;;;;;19.70;9.80;;;2.10;1.00;;;;;;5029254;28;20468;-64
2022/12/03 10:07:43;;;;;;;22.93;9.70;;;2.00;1.00;;;;;;5029082;28;20410;-64
2022/12/03 10:10:21;;;;;;;18.90;10.37;;;2.10;1.00;;;;;;5028532;28;20418;-64
2022/12/03 10:12:49;;;;;;;19.70;10.63;;;2.30;1.00;;;;;;5028875;28;20481;-64
2022/12/03 10:15:17;;;;;;;16.07;9.30;;;2.30;1.00;;;;;;5028809;28;20405;-65
2022/12/03 10:17:44;;;;;;;24.40;10.73;;;2.30;1.00;;;;;;5028585;28;20476;-65
2022/12/03 10:20:15;;;;;;;14.30;9.23;;;2.40;1.00;;;;;;5029212;28;20470;-64
2022/12/03 10:22:41;;;;;;;19.30;10.30;;;2.30;1.00;;;;;;5028854;28;20843;-65
2022/12/03 10:25:11;;;;;;;19.83;11.37;;;2.30;1.00;;;;;;5029510;28;20497;-65
2022/12/03 10:27:37;;;;;;;18.70;10.50;;;2.30;1.00;;;;;;5029269;28;20172;-65
2022/12/03 10:30:18;;;;;;;19.00;11.63;;;2.40;1.00;;;;;;5029329;28;20430;-65
2022/12/03 10:32:45;;;;;;;17.70;10.10;;;2.50;1.00;;;;;;5023568;28;21004;-63
2022/12/03 10:35:21;;;;;;;21.27;11.37;;;2.50;1.00;;;;;;5028535;28;20418;-65
2022/12/03 10:38:18;;;;;;;25.00;11.07;;;2.50;1.00;;;;;;5023558;28;20415;-64
2022/12/03 10:40:45;;;;;;;18.27;9.47;;;2.50;1.00;;;;;;5026199;28;20466;-64
2022/12/03 10:43:15;;;;;;;20.67;11.43;;;2.40;1.00;;;;;;5028607;28;20418;-64
2022/12/03 10:45:42;;;;;;;16.60;9.47;;;2.50;1.00;;;;;;5028125;28;20950;-64
2022/12/03 10:48:19;;;;;;;19.33;10.10;;;2.30;1.00;;;;;;5028178;28;20525;-64
2022/12/03 10:50:50;;;;;;;18.43;10.17;;;2.30;1.00;;;;;;5024874;28;20464;-64
2022/12/03 10:53:17;;;;;;;19.67;11.83;;;2.40;1.00;;;;;;5028731;28;20712;-64
2022/12/03 10:55:45;;;;;;;21.80;10.60;;;2.40;1.00;;;;;;5026130;28;20466;-63
2022/12/03 10:58:20;;;;;;;18.00;10.93;;;2.20;1.00;;;;;;5025985;28;20537;-64
2022/12/03 11:00:46;;;;;;;21.50;12.30;;;2.30;1.00;;;;;;5027468;28;20453;-64
2022/12/03 11:03:18;;;;;;;16.60;9.53;;;2.10;1.00;;;;;;5027299;28;20442;-64
2022/12/03 11:05:44;;;;;;;16.77;9.97;;;1.90;1.00;;;;;;5018787;28;20437;-65
2022/12/03 11:08:25;;;;;;;19.13;9.93;;;1.90;1.00;;;;;;5026862;28;20528;-65
2022/12/03 11:11:01;;;;;;;17.33;9.63;;;1.80;1.00;;;;;;5026649;28;20207;-65
2022/12/03 11:13:32;;;;;;;25.40;10.23;;;1.90;1.00;;;;;;5028796;28;21109;-64
2022/12/03 11:16:00;;;;;;;22.13;11.33;;;2.00;1.00;;;;;;5028082;28;20806;-65
2022/12/03 11:18:37;;;;;;;19.60;10.00;;;2.30;1.00;;;;;;5029411;28;20434;-64
2022/12/03 11:21:10;;;;;;;15.90;9.83;;;2.30;1.00;;;;;;5026898;28;20490;-64
2022/12/03 11:23:45;;;;;;;19.03;10.50;;;2.20;1.00;;;;;;5027885;28;20426;-64
2022/12/03 11:26:16;;;;;;;23.53;10.00;;;2.10;1.00;;;;;;5027170;28;20465;-63
2022/12/03 11:28:51;;;;;;;18.43;10.03;;;1.90;1.00;;;;;;5025138;28;20437;-64
2022/12/03 11:31:42;;;;;;;16.63;9.33;;;1.90;1.00;;;;;;5028737;28;20446;-64
2022/12/03 11:34:17;;;;;;;17.37;9.80;;;1.70;1.00;;;;;;5023206;28;20550;-64
2022/12/03 11:37:11;;;;;;;20.17;9.33;;;1.80;1.00;;;;;;5027534;28;20411;-64
2022/12/03 11:39:51;;;;;;;15.87;8.20;;;2.10;1.00;;;;;;5023776;28;20946;-64
2022/12/03 11:42:25;;;;;;;23.00;10.83;;;2.00;1.00;;;;;;5013796;28;20419;-64
2022/12/03 11:45:04;;;;;;;19.27;11.10;;;2.00;1.00;;;;;;5022777;28;21252;-64
2022/12/03 11:47:40;;;;;;;13.80;9.67;;;2.30;1.00;;;;;;5024349;28;20564;-64
2022/12/03 11:50:21;;;;;;;24.10;10.50;;;2.20;1.00;;;;;;5015059;28;20503;-64
2022/12/03 11:53:23;;;;;;;18.43;9.10;;;2.10;1.00;;;;;;5000487;28;20445;-64
2022/12/03 11:56:07;;;;;;;18.47;9.80;;;2.00;1.00;;;;;;5000720;28;20436;-64
2022/12/03 11:58:35;;;;;;;15.67;10.17;;;2.20;1.00;;;;;;5019571;28;21043;-65
2022/12/03 12:01:03;;;;;;;29.63;11.17;;;1.90;1.00;;;;;;5024487;28;20411;-64
2022/12/03 12:03:30;;;;;;;21.40;10.30;;;1.90;1.00;;;;;;5024144;28;20863;-64
2022/12/03 12:06:07;;;;;;;19.00;10.73;;;1.90;1.00;;;;;;5026772;28;20864;-65
2022/12/03 12:08:37;;;;;;;21.30;10.67;;;2.10;1.00;;;;;;5028281;28;20448;-64
2022/12/03 12:11:03;;;;;;;22.60;10.80;;;2.00;1.00;;;;;;5024957;28;20549;-64
2022/12/03 12:13:32;;;;;;;19.57;12.07;;;1.90;1.00;;;;;;5027486;28;20504;-64
2022/12/03 12:16:00;;;;;;;18.37;11.97;;;1.80;1.00;;;;;;5027713;28;20400;-64
2022/12/03 12:18:33;;;;;;;18.43;10.10;;;1.60;1.00;;;;;;5028328;28;20406;-64
2022/12/03 12:21:36;;;;;;;22.40;10.90;;;1.70;1.00;;;;;;5027559;28;20823;-64
2022/12/03 12:24:35;;;;;;;21.80;11.20;;;2.00;1.00;;;;;;5027048;28;20459;-64
2022/12/03 12:27:19;;;;;;;23.73;10.57;;;2.10;1.00;;;;;;5024918;28;20509;-64
2022/12/03 12:29:52;;;;;;;20.73;10.37;;;1.90;1.00;;;;;;5027752;28;20883;-64
2022/12/03 12:32:23;;;;;;;17.13;9.77;;;2.00;1.00;;;;;;5027268;28;20560;-64
2022/12/03 12:34:53;;;;;;;17.20;9.60;;;1.90;1.00;;;;;;5028017;28;20466;-64
2022/12/03 12:37:41;;;;;;;19.47;10.87;;;1.60;1.00;;;;;;5028144;28;20414;-64
2022/12/03 12:40:14;;;;;;;18.80;9.20;;;1.60;1.00;;;;;;5027497;28;20450;-65
2022/12/03 12:43:09;;;;;;;23.03;11.60;;;1.60;1.00;;;;;;5027352;28;20801;-64
2022/12/03 12:45:40;;;;;;;17.90;10.03;;;1.80;1.00;;;;;;5024100;28;20457;-64
2022/12/03 12:48:09;;;;;;;19.47;10.40;;;1.60;1.00;;;;;;5028026;28;20843;-64
2022/12/03 12:50:38;;;;;;;23.80;11.83;;;2.00;1.00;;;;;;5026464;28;20509;-64
2022/12/03 12:53:21;;;;;;;17.93;10.57;;;1.90;1.00;;;;;;5028394;28;20458;-64
2022/12/03 12:55:47;;;;;;;22.10;10.70;;;1.70;1.00;;;;;;5027368;28;20414;-64
2022/12/03 12:58:18;;;;;;;18.60;10.77;;;1.90;1.00;;;;;;5027781;28;21014;-65
2022/12/03 13:00:50;;;;;;;18.73;10.60;;;2.10;1.00;;;;;;5026748;28;20422;-65
2022/12/03 13:03:18;;;;;;;18.37;11.07;;;2.20;1.00;;;;;;5027852;28;20407;-64
2022/12/03 13:05:46;;;;;;;20.63;10.90;;;2.00;1.00;;;;;;5028261;28;20410;-65
2022/12/03 13:08:20;;;;;;;17.13;10.50;;;1.70;1.00;;;;;;5027864;28;20429;-64
2022/12/03 13:10:47;;;;;;;19.73;10.63;;;1.80;1.00;;;;;;5026798;28;20437;-65
2022/12/03 13:13:21;;;;;;;16.63;10.40;;;1.80;1.00;;;;;;5027524;28;20454;-65
2022/12/03 13:16:05;;;;;;;18.43;12.03;;;1.70;1.00;;;;;;5027559;28;20440;-65
2022/12/03 13:18:54;;;;;;;23.20;12.77;;;2.00;1.00;;;;;;5027496;28;20402;-65
2022/12/03 13:21:30;;;;;;;21.90;12.47;;;1.60;1.00;;;;;;5026643;28;20426;-65